Time;durP1;ratioP1;P1;durP2;ratioP2;P2;SDS_P1;SDS_P2;PMS_P1;PMS_P2;Temp;Humidity;BMP_temperature;BMP_pressure;BME280_temperature;BME280_humidity;BME280_pressure;Samples;Min_cycle;Max_cycle;Signal;HPM_P1;HPM_P2
2022/09/29 00:00:25;;;;;;;2.63;0.80;;;21.80;52.90;;;;;;5055725;28;20033;-58
2022/09/29 00:02:51;;;;;;;2.78;1.38;;;21.80;52.90;;;;;;5052262;28;20029;-46
2022/09/29 00:05:17;;;;;;;1.25;0.95;;;21.90;52.90;;;;;;5054140;28;20316;-58
2022/09/29 00:07:43;;;;;;;1.13;0.73;;;21.90;52.80;;;;;;5055343;28;20029;-59
2022/09/29 00:10:09;;;;;;;1.33;0.80;;;21.90;53.00;;;;;;5065505;28;20039;-59
2022/09/29 00:12:35;;;;;;;0.98;0.70;;;21.90;53.10;;;;;;5057258;28;20037;-58
2022/09/29 00:15:00;;;;;;;1.20;0.70;;;21.90;53.20;;;;;;5052553;28;20486;-58
2022/09/29 00:17:26;;;;;;;1.85;0.90;;;21.90;53.20;;;;;;5054323;28;20056;-56
2022/09/29 00:19:52;;;;;;;2.20;0.75;;;21.90;53.30;;;;;;5045446;28;20037;-48
2022/09/29 00:22:17;;;;;;;1.08;0.70;;;21.90;53.20;;;;;;5053662;28;20547;-58
2022/09/29 00:24:43;;;;;;;1.58;1.00;;;21.90;53.20;;;;;;5053304;28;20040;-58
2022/09/29 00:27:08;;;;;;;1.13;0.80;;;21.90;53.10;;;;;;5052324;28;20091;-56
2022/09/29 00:29:34;;;;;;;1.33;0.80;;;21.90;53.10;;;;;;5052733;28;20036;-59
2022/09/29 00:31:59;;;;;;;2.35;1.10;;;21.90;53.10;;;;;;5058381;28;20033;-54
2022/09/29 00:34:25;;;;;;;1.45;1.00;;;22.00;53.10;;;;;;5056030;28;20412;-58
2022/09/29 00:36:51;;;;;;;2.40;1.55;;;21.90;53.10;;;;;;5061154;28;20028;-46
2022/09/29 00:39:16;;;;;;;1.50;0.80;;;21.90;53.00;;;;;;5050833;28;20413;-59
2022/09/29 00:41:42;;;;;;;2.72;0.85;;;21.90;53.00;;;;;;5054004;28;20040;-57
2022/09/29 00:44:13;;;;;;;1.35;0.80;;;21.90;52.90;;;;;;5052303;28;20361;-59
2022/09/29 00:46:39;;;;;;;1.27;0.85;;;21.90;52.90;;;;;;5058823;28;20029;-59
2022/09/29 00:49:23;;;;;;;1.45;0.90;;;21.90;53.50;;;;;;5053807;28;20074;-58
2022/09/29 00:51:57;;;;;;;1.05;0.80;;;21.90;52.90;;;;;;5056533;28;20044;-46
2022/09/29 00:54:27;;;;;;;1.25;0.93;;;21.90;52.90;;;;;;5043172;28;20026;-59
2022/09/29 00:56:55;;;;;;;1.20;0.70;;;21.90;52.90;;;;;;5037432;28;20500;-50
2022/09/29 00:59:31;;;;;;;1.23;0.70;;;21.90;52.90;;;;;;5054713;28;20024;-58
2022/09/29 01:01:58;;;;;;;1.25;0.80;;;21.90;52.80;;;;;;5060432;28;20060;-58
2022/09/29 01:04:24;;;;;;;1.48;0.85;;;21.90;52.80;;;;;;5055192;28;20029;-59
2022/09/29 01:06:56;;;;;;;1.45;1.00;;;21.90;52.80;;;;;;5061553;28;20033;-46
2022/09/29 01:09:30;;;;;;;0.85;0.60;;;21.90;52.80;;;;;;5053573;28;20409;-58
2022/09/29 01:11:58;;;;;;;1.38;1.05;;;21.90;52.70;;;;;;5033559;28;20060;-58
2022/09/29 01:14:26;;;;;;;1.67;0.80;;;21.90;52.70;;;;;;5049302;28;20437;-58
2022/09/29 01:16:52;;;;;;;1.13;0.80;;;21.90;52.70;;;;;;5055972;28;20442;-46
2022/09/29 01:19:40;;;;;;;0.93;0.68;;;21.90;52.70;;;;;;5052516;28;20103;-54
2022/09/29 01:22:25;;;;;;;1.35;1.23;;;21.90;52.80;;;;;;5052544;28;20064;-58
2022/09/29 01:25:01;;;;;;;1.08;0.70;;;21.90;52.70;;;;;;5053569;28;20032;-46
2022/09/29 01:27:45;;;;;;;1.50;0.68;;;21.90;52.70;;;;;;5050487;28;20055;-58
2022/09/29 01:30:13;;;;;;;1.38;0.90;;;21.90;52.70;;;;;;5062843;28;20020;-59
2022/09/29 01:33:20;;;;;;;0.93;0.70;;;21.90;52.60;;;;;;5053389;28;20114;-58
2022/09/29 01:36:02;;;;;;;1.60;0.90;;;21.90;52.70;;;;;;5050990;28;20047;-58
2022/09/29 01:38:41;;;;;;;15.80;1.15;;;21.90;52.60;;;;;;5064166;28;20079;-58
2022/09/29 01:41:14;;;;;;;1.90;1.17;;;21.90;52.60;;;;;;5052402;28;20079;-59
2022/09/29 01:44:02;;;;;;;1.00;0.60;;;21.90;52.60;;;;;;5050735;28;20052;-57
2022/09/29 01:46:52;;;;;;;1.50;0.80;;;21.90;52.50;;;;;;5005925;28;20127;-58
2022/09/29 01:49:20;;;;;;;1.00;0.70;;;21.90;52.50;;;;;;5051754;28;20055;-58
2022/09/29 01:51:54;;;;;;;1.52;1.02;;;21.90;52.50;;;;;;5052718;28;20120;-58
2022/09/29 01:54:29;;;;;;;2.22;1.35;;;21.90;52.50;;;;;;5053546;28;20423;-58
2022/09/29 01:57:06;;;;;;;1.63;1.00;;;21.90;52.50;;;;;;5056587;28;20470;-46
2022/09/29 02:00:00;;;;;;;0.88;0.70;;;21.90;52.50;;;;;;5059699;28;20078;-57
2022/09/29 02:02:33;;;;;;;1.20;0.75;;;21.90;52.60;;;;;;5049653;28;20061;-56
2022/09/29 02:05:03;;;;;;;1.33;0.82;;;21.90;52.50;;;;;;5044365;28;20067;-57
2022/09/29 02:07:42;;;;;;;0.88;0.60;;;21.90;52.50;;;;;;5048747;28;20021;-57
2022/09/29 02:10:27;;;;;;;0.75;0.55;;;21.80;52.50;;;;;;5046783;28;20029;-58
2022/09/29 02:12:55;;;;;;;1.52;0.70;;;21.80;52.60;;;;;;5052335;28;20037;-46
2022/09/29 02:15:25;;;;;;;1.33;0.90;;;21.80;52.60;;;;;;5052091;28;20039;-56
2022/09/29 02:17:57;;;;;;;1.13;1.02;;;21.80;52.60;;;;;;5049718;28;20045;-58
2022/09/29 02:20:23;;;;;;;1.77;0.87;;;21.80;52.60;;;;;;5063627;28;20032;-58
2022/09/29 02:22:49;;;;;;;1.50;0.90;;;21.80;52.60;;;;;;5051844;28;20091;-57
2022/09/29 02:25:17;;;;;;;2.80;1.35;;;21.80;52.60;;;;;;5051058;28;20021;-58
2022/09/29 02:27:44;;;;;;;1.52;0.82;;;21.80;52.70;;;;;;5052164;28;20079;-57
2022/09/29 02:30:11;;;;;;;0.95;0.60;;;21.80;52.70;;;;;;5051763;28;20025;-53
2022/09/29 02:32:36;;;;;;;1.20;0.93;;;21.70;52.50;;;;;;5051934;28;20029;-58
2022/09/29 02:35:06;;;;;;;1.23;0.88;;;21.80;52.70;;;;;;5041955;28;20044;-56
2022/09/29 02:37:37;;;;;;;1.65;0.80;;;21.70;52.60;;;;;;5046497;28;20033;-58
2022/09/29 02:40:20;;;;;;;1.65;0.98;;;21.70;52.60;;;;;;5050817;28;20108;-58
2022/09/29 02:43:04;;;;;;;1.55;1.00;;;21.70;52.50;;;;;;5059439;28;20057;-58
2022/09/29 02:45:53;;;;;;;1.40;0.80;;;21.70;52.50;;;;;;5051547;28;20044;-57
2022/09/29 02:48:27;;;;;;;0.93;0.80;;;21.70;52.50;;;;;;5054119;28;20115;-58
2022/09/29 02:51:06;;;;;;;1.50;0.70;;;21.70;52.60;;;;;;5051972;28;20025;-58
2022/09/29 02:53:31;;;;;;;1.60;0.70;;;21.70;53.10;;;;;;5048993;28;20781;-58
2022/09/29 02:56:12;;;;;;;2.20;0.88;;;21.70;52.50;;;;;;5055900;28;20025;-47
2022/09/29 02:58:45;;;;;;;1.15;0.80;;;21.70;52.40;;;;;;5050617;28;20024;-58
2022/09/29 03:01:13;;;;;;;1.15;0.68;;;21.70;52.40;;;;;;5057788;28;20024;-58
2022/09/29 03:03:38;;;;;;;1.02;0.80;;;21.70;52.40;;;;;;5052744;28;20032;-58
2022/09/29 03:06:04;;;;;;;1.75;0.70;;;21.70;52.40;;;;;;5050630;28;20478;-57
2022/09/29 03:08:31;;;;;;;1.38;1.00;;;21.70;52.40;;;;;;5051225;28;20033;-58
2022/09/29 03:10:56;;;;;;;1.23;0.95;;;21.70;52.40;;;;;;5055554;28;20036;-46
2022/09/29 03:13:22;;;;;;;1.90;0.85;;;21.70;52.40;;;;;;5059335;28;20029;-58
2022/09/29 03:15:48;;;;;;;1.10;0.75;;;21.70;52.40;;;;;;5052229;28;20021;-58
2022/09/29 03:18:13;;;;;;;0.77;0.70;;;21.70;52.40;;;;;;5050673;28;20025;-55
2022/09/29 03:20:39;;;;;;;0.90;0.60;;;21.70;52.40;;;;;;5051248;28;20048;-51
2022/09/29 03:23:04;;;;;;;1.23;0.90;;;21.70;52.40;;;;;;5050940;28;20039;-56
2022/09/29 03:25:30;;;;;;;1.00;0.80;;;21.70;52.40;;;;;;5048377;28;20474;-57
2022/09/29 03:27:55;;;;;;;0.90;0.70;;;21.70;52.40;;;;;;5055441;28;20032;-46
2022/09/29 03:30:22;;;;;;;1.35;0.80;;;21.70;52.30;;;;;;5056789;28;20355;-58
2022/09/29 03:32:48;;;;;;;1.05;0.65;;;21.70;52.30;;;;;;5063690;28;20095;-58
2022/09/29 03:35:13;;;;;;;1.35;0.88;;;21.70;52.30;;;;;;5056441;28;20033;-58
2022/09/29 03:37:39;;;;;;;0.93;0.68;;;21.70;52.30;;;;;;5050128;28;20117;-58
2022/09/29 03:40:05;;;;;;;1.48;0.95;;;21.70;52.30;;;;;;5058007;28;20025;-58
2022/09/29 03:42:31;;;;;;;2.67;0.90;;;21.60;52.20;;;;;;5067439;28;20044;-55
2022/09/29 03:44:57;;;;;;;1.45;1.00;;;21.70;52.30;;;;;;5058268;28;20025;-47
2022/09/29 03:47:23;;;;;;;1.70;0.90;;;21.60;52.20;;;;;;5057476;28;20024;-56
2022/09/29 03:49:48;;;;;;;1.13;0.93;;;21.60;52.30;;;;;;5058177;28;20032;-58
2022/09/29 03:52:14;;;;;;;1.23;0.73;;;21.70;52.30;;;;;;5059179;28;20060;-58
2022/09/29 03:54:39;;;;;;;1.00;0.73;;;21.60;52.80;;;;;;5057085;28;20028;-57
2022/09/29 03:57:05;;;;;;;1.00;0.90;;;21.60;52.20;;;;;;5058373;28;20032;-58
2022/09/29 03:59:30;;;;;;;1.00;0.65;;;21.60;52.10;;;;;;5059562;28;20040;-58
2022/09/29 04:01:56;;;;;;;1.00;0.60;;;21.60;52.20;;;;;;5058370;28;20528;-47
2022/09/29 04:04:22;;;;;;;1.48;0.98;;;21.60;52.20;;;;;;5063713;28;20036;-58
2022/09/29 04:06:47;;;;;;;0.90;0.70;;;21.60;52.20;;;;;;5064821;28;20032;-57
2022/09/29 04:09:13;;;;;;;0.85;0.70;;;21.60;52.20;;;;;;5056547;28;20385;-57
2022/09/29 04:11:39;;;;;;;1.10;0.75;;;21.60;52.20;;;;;;5062616;28;20024;-57
2022/09/29 04:14:05;;;;;;;1.33;0.80;;;21.60;52.80;;;;;;5055206;28;20104;-58
2022/09/29 04:16:31;;;;;;;1.15;0.80;;;21.60;52.10;;;;;;5052636;28;20042;-58
2022/09/29 04:18:57;;;;;;;1.58;1.00;;;21.60;52.10;;;;;;5053920;28;20049;-49
2022/09/29 04:21:22;;;;;;;1.00;0.73;;;21.60;52.10;;;;;;5059671;28;20435;-58
2022/09/29 04:23:48;;;;;;;1.55;1.40;;;21.60;52.10;;;;;;5061582;28;20462;-58
2022/09/29 04:26:14;;;;;;;1.58;0.88;;;21.60;52.10;;;;;;5056790;28;20025;-57
2022/09/29 04:28:40;;;;;;;1.08;0.60;;;21.60;52.10;;;;;;5060990;28;20040;-58
2022/09/29 04:31:06;;;;;;;0.82;0.75;;;21.60;52.00;;;;;;5056545;28;20024;-57
2022/09/29 04:33:32;;;;;;;1.50;1.33;;;21.60;52.00;;;;;;5055154;28;20022;-57
2022/09/29 04:35:59;;;;;;;2.03;0.90;;;21.60;52.00;;;;;;5055382;28;20029;-46
2022/09/29 04:38:24;;;;;;;1.17;0.82;;;21.60;52.00;;;;;;5058459;28;20052;-58
2022/09/29 04:40:50;;;;;;;1.83;1.00;;;21.60;52.00;;;;;;5053368;28;20470;-58
2022/09/29 04:43:16;;;;;;;1.05;0.68;;;21.60;52.60;;;;;;5061378;28;20131;-51
2022/09/29 04:45:41;;;;;;;0.95;0.70;;;21.60;52.00;;;;;;5060958;28;20040;-58
2022/09/29 04:48:07;;;;;;;1.40;0.73;;;21.60;52.00;;;;;;5048997;28;20541;-57
2022/09/29 04:50:33;;;;;;;1.02;0.60;;;21.60;52.00;;;;;;5053577;28;20108;-57
2022/09/29 04:52:59;;;;;;;1.50;0.70;;;21.60;52.10;;;;;;5050336;28;20047;-46
2022/09/29 04:55:25;;;;;;;1.00;0.75;;;21.60;52.00;;;;;;5052766;28;20152;-58
2022/09/29 04:57:50;;;;;;;0.95;0.85;;;21.60;52.00;;;;;;5053807;28;20037;-58
2022/09/29 05:00:16;;;;;;;1.15;0.70;;;21.60;52.00;;;;;;5052738;28;20462;-57
2022/09/29 05:02:42;;;;;;;2.10;0.77;;;21.60;52.10;;;;;;5054732;28;20059;-58
2022/09/29 05:05:11;;;;;;;0.90;0.75;;;21.60;52.00;;;;;;5058872;28;20029;-58
2022/09/29 05:07:40;;;;;;;0.98;0.90;;;21.60;52.00;;;;;;5054168;28;20090;-52
2022/09/29 05:10:07;;;;;;;1.55;0.80;;;21.50;51.90;;;;;;5051244;28;20033;-57
2022/09/29 05:12:32;;;;;;;1.48;0.70;;;21.60;52.00;;;;;;5058721;28;20141;-57
2022/09/29 05:14:58;;;;;;;1.45;1.13;;;21.60;52.00;;;;;;5051104;28;20104;-57
2022/09/29 05:17:24;;;;;;;2.88;0.80;;;21.60;52.60;;;;;;5052561;28;20033;-58
2022/09/29 05:19:49;;;;;;;0.57;0.50;;;21.60;51.90;;;;;;5060609;28;20477;-58
2022/09/29 05:22:15;;;;;;;1.65;0.90;;;21.50;52.00;;;;;;5053813;28;20033;-57
2022/09/29 05:24:40;;;;;;;0.80;0.70;;;21.50;51.90;;;;;;5050130;28;20036;-58
2022/09/29 05:27:06;;;;;;;3.13;0.70;;;21.50;52.00;;;;;;5053005;28;20032;-58
2022/09/29 05:29:32;;;;;;;1.02;0.85;;;21.50;52.10;;;;;;5052447;28;20071;-58
2022/09/29 05:31:57;;;;;;;1.52;0.82;;;21.60;52.00;;;;;;5053928;28;20029;-57
2022/09/29 05:34:23;;;;;;;1.13;0.68;;;21.50;52.00;;;;;;5049086;28;20621;-58
2022/09/29 05:36:49;;;;;;;1.73;0.98;;;21.50;52.00;;;;;;5052653;28;20044;-51
2022/09/29 05:39:16;;;;;;;2.80;0.90;;;21.50;52.10;;;;;;5051847;28;20036;-58
2022/09/29 05:41:42;;;;;;;3.85;0.80;;;21.50;52.20;;;;;;5062511;28;20041;-53
2022/09/29 05:44:07;;;;;;;4.50;1.10;;;21.50;52.20;;;;;;5047383;28;20052;-57
2022/09/29 05:46:33;;;;;;;3.75;1.88;;;21.50;50.10;;;;;;5052984;28;20465;-51
2022/09/29 05:48:58;;;;;;;1.73;0.93;;;21.50;50.30;;;;;;5047606;28;20104;-54
2022/09/29 05:51:27;;;;;;;1.83;1.30;;;21.60;52.00;;;;;;5049883;28;20025;-58
2022/09/29 05:53:53;;;;;;;3.42;1.00;;;21.60;52.50;;;;;;5059972;28;20225;-58
2022/09/29 05:56:22;;;;;;;3.75;1.17;;;21.60;52.60;;;;;;5051953;28;20056;-57
2022/09/29 05:58:48;;;;;;;4.28;1.10;;;21.50;52.80;;;;;;5052287;28;20036;-58
2022/09/29 06:01:19;;;;;;;1.52;1.00;;;21.50;52.80;;;;;;5053216;28;20466;-57
2022/09/29 06:03:45;;;;;;;3.10;1.30;;;21.50;50.20;;;;;;5053681;28;20029;-58
2022/09/29 06:06:15;;;;;;;1.50;1.30;;;21.50;48.00;;;;;;5054994;28;20032;-57
2022/09/29 06:08:41;;;;;;;2.72;1.65;;;21.50;47.20;;;;;;5049246;28;20478;-58
2022/09/29 06:11:16;;;;;;;2.50;1.48;;;21.40;47.00;;;;;;5061657;28;20037;-57
2022/09/29 06:13:50;;;;;;;3.08;1.45;;;21.40;47.00;;;;;;5052036;28;20021;-58
2022/09/29 06:16:18;;;;;;;2.40;1.00;;;21.40;48.70;;;;;;5049213;28;20363;-57
2022/09/29 06:18:45;;;;;;;3.63;1.20;;;21.40;50.30;;;;;;5051837;28;20441;-58
2022/09/29 06:21:19;;;;;;;2.22;1.10;;;21.50;51.00;;;;;;5060102;28;20017;-58
2022/09/29 06:23:45;;;;;;;2.65;1.10;;;21.50;51.60;;;;;;5016339;28;20120;-58
2022/09/29 06:26:14;;;;;;;3.92;1.27;;;21.50;52.10;;;;;;5044778;28;20451;-57
2022/09/29 06:28:40;;;;;;;3.83;1.35;;;21.60;52.20;;;;;;5032909;28;20398;-58
2022/09/29 06:31:09;;;;;;;2.85;1.13;;;21.60;52.50;;;;;;5051049;28;20050;-49
2022/09/29 06:33:35;;;;;;;2.65;1.00;;;21.60;52.20;;;;;;5048352;28;20040;-58
2022/09/29 06:38:56;;;;;;;2.30;0.95;;;21.60;52.90;;;;;;5046996;28;20134;-58
2022/09/29 06:41:22;;;;;;;3.90;1.58;;;21.60;53.00;;;;;;5049729;28;20017;-59
2022/09/29 06:43:48;;;;;;;2.35;0.93;;;21.60;53.00;;;;;;5049776;28;20106;-58
2022/09/29 06:46:13;;;;;;;2.90;0.90;;;21.60;53.10;;;;;;5049945;28;20536;-58
2022/09/29 06:48:39;;;;;;;2.35;1.00;;;21.60;52.90;;;;;;5048167;28;20033;-58
2022/09/29 06:51:08;;;;;;;5.53;1.23;;;21.60;53.10;;;;;;5050019;28;20025;-47
2022/09/29 06:53:35;;;;;;;2.00;0.93;;;21.60;53.00;;;;;;5047070;28;20108;-58
2022/09/29 06:56:01;;;;;;;3.20;1.05;;;21.60;53.00;;;;;;5051226;28;20029;-59
2022/09/29 06:58:28;;;;;;;1.65;1.00;;;21.50;53.10;;;;;;5049760;28;20029;-58
2022/09/29 07:00:54;;;;;;;1.80;0.70;;;21.60;53.10;;;;;;5050328;28;20078;-58
2022/09/29 07:03:20;;;;;;;3.05;1.33;;;21.60;53.00;;;;;;5048738;28;20386;-59
2022/09/29 07:05:46;;;;;;;2.72;0.93;;;21.60;53.10;;;;;;5044487;28;20026;-58
2022/09/29 07:08:12;;;;;;;1.55;0.80;;;21.60;53.20;;;;;;5050144;28;20036;-56
2022/09/29 07:10:37;;;;;;;3.22;1.15;;;21.60;53.30;;;;;;5050665;28;20029;-58
2022/09/29 07:13:04;;;;;;;2.15;1.15;;;21.60;53.40;;;;;;5050964;28;20033;-47
2022/09/29 07:15:30;;;;;;;1.70;1.00;;;21.60;53.40;;;;;;5048640;28;20021;-57
2022/09/29 07:17:58;;;;;;;2.72;1.00;;;21.60;53.40;;;;;;5033220;28;20056;-59
2022/09/29 07:20:25;;;;;;;1.25;0.90;;;21.60;53.40;;;;;;5046759;28;20053;-58
2022/09/29 07:22:51;;;;;;;1.85;1.48;;;21.60;53.50;;;;;;5051069;28;20032;-58
2022/09/29 07:25:16;;;;;;;4.20;1.25;;;21.50;53.40;;;;;;5049630;28;20481;-57
2022/09/29 07:27:42;;;;;;;3.70;1.25;;;21.60;53.50;;;;;;5050983;28;20409;-58
2022/09/29 07:30:08;;;;;;;1.58;1.00;;;21.60;53.40;;;;;;5049093;28;20036;-57
2022/09/29 07:32:35;;;;;;;2.42;0.90;;;21.60;53.50;;;;;;5050725;28;20067;-58
2022/09/29 07:35:00;;;;;;;2.08;0.73;;;21.50;53.40;;;;;;5049133;28;20359;-58
2022/09/29 07:37:27;;;;;;;1.40;1.00;;;21.50;53.40;;;;;;5050132;28;20077;-58
2022/09/29 07:39:53;;;;;;;1.75;0.95;;;21.50;53.40;;;;;;5050267;28;20086;-58
2022/09/29 07:42:20;;;;;;;2.83;1.05;;;21.60;53.40;;;;;;5049621;28;20041;-57
2022/09/29 07:44:46;;;;;;;1.85;0.85;;;21.50;53.30;;;;;;5049177;28;20053;-55
2022/09/29 07:47:12;;;;;;;1.75;0.93;;;21.50;53.40;;;;;;5049682;28;20028;-58
2022/09/29 07:49:38;;;;;;;0.88;0.60;;;21.60;53.40;;;;;;5048506;28;20029;-54
2022/09/29 07:52:04;;;;;;;2.47;0.90;;;21.60;53.40;;;;;;5047554;28;20036;-46
2022/09/29 07:54:30;;;;;;;2.25;0.80;;;21.60;53.40;;;;;;5049458;28;20406;-59
2022/09/29 07:56:56;;;;;;;1.60;0.80;;;21.60;54.00;;;;;;5050509;28;20148;-58
2022/09/29 07:59:21;;;;;;;2.88;1.65;;;21.60;53.30;;;;;;5048962;28;20470;-58
2022/09/29 08:01:47;;;;;;;1.80;1.10;;;21.60;53.30;;;;;;5049751;28;20555;-54
2022/09/29 08:04:13;;;;;;;0.95;0.68;;;21.60;53.30;;;;;;5043073;28;20029;-58
2022/09/29 08:06:39;;;;;;;2.22;0.90;;;21.50;53.30;;;;;;5050160;28;20052;-58
2022/09/29 08:09:05;;;;;;;0.77;0.70;;;21.60;53.30;;;;;;5049749;28;20040;-47
2022/09/29 08:11:32;;;;;;;1.83;0.98;;;21.60;53.30;;;;;;5049525;28;20025;-57
2022/09/29 08:13:59;;;;;;;1.73;1.00;;;21.60;53.30;;;;;;5049112;28;20029;-58
2022/09/29 08:16:25;;;;;;;2.95;0.70;;;21.60;53.30;;;;;;5051188;28;20025;-57
2022/09/29 08:18:50;;;;;;;1.60;0.73;;;21.60;53.40;;;;;;5051862;28;20036;-59
2022/09/29 08:21:16;;;;;;;3.33;0.82;;;21.50;53.30;;;;;;5052359;28;20032;-51
2022/09/29 08:23:43;;;;;;;2.38;0.90;;;21.50;53.30;;;;;;5053595;28;20107;-58
2022/09/29 08:26:17;;;;;;;1.70;0.88;;;21.60;54.00;;;;;;5052813;28;20025;-48
2022/09/29 08:28:44;;;;;;;1.30;0.75;;;21.60;53.40;;;;;;5049577;28;20044;-58
2022/09/29 08:31:19;;;;;;;1.85;0.88;;;21.60;53.40;;;;;;5052280;28;20367;-57
2022/09/29 08:33:45;;;;;;;2.28;1.30;;;21.60;53.40;;;;;;5052312;28;20492;-55
2022/09/29 08:36:13;;;;;;;1.50;0.90;;;21.60;53.30;;;;;;5052827;28;20031;-58
2022/09/29 08:38:47;;;;;;;2.22;1.10;;;21.60;53.40;;;;;;5050917;28;20044;-58
2022/09/29 08:41:51;;;;;;;1.40;0.90;;;21.60;53.30;;;;;;5052490;28;20039;-55
2022/09/29 08:44:26;;;;;;;1.33;1.00;;;21.60;53.30;;;;;;5044911;28;20056;-58
2022/09/29 08:46:58;;;;;;;1.83;0.80;;;21.60;53.40;;;;;;5035162;28;20048;-59
2022/09/29 08:49:34;;;;;;;1.48;0.80;;;21.60;53.30;;;;;;5050825;28;20473;-58
2022/09/29 08:52:11;;;;;;;2.38;0.88;;;21.60;53.30;;;;;;5051367;28;20047;-58
2022/09/29 08:54:40;;;;;;;1.10;0.77;;;21.60;53.30;;;;;;5052314;28;20150;-54
2022/09/29 08:57:16;;;;;;;1.85;0.82;;;21.60;53.30;;;;;;5052901;28;20040;-46
2022/09/29 08:59:42;;;;;;;0.90;0.68;;;21.60;53.30;;;;;;5052781;28;20033;-58
2022/09/29 09:02:07;;;;;;;1.05;0.70;;;21.60;54.00;;;;;;5052389;28;20405;-46
2022/09/29 09:05:11;;;;;;;1.20;0.70;;;21.60;53.40;;;;;;5051488;28;20036;-59
2022/09/29 09:07:43;;;;;;;1.70;1.00;;;21.60;53.40;;;;;;5044718;28;20049;-59
2022/09/29 09:10:30;;;;;;;1.30;0.70;;;21.60;53.40;;;;;;5052216;28;20040;-47
2022/09/29 09:13:07;;;;;;;3.03;0.80;;;21.60;53.40;;;;;;5053130;28;20056;-58
2022/09/29 09:15:54;;;;;;;1.02;0.75;;;21.60;53.40;;;;;;5047044;28;20032;-55
2022/09/29 09:18:42;;;;;;;2.28;1.77;;;21.60;53.30;;;;;;5051760;28;20462;-58
2022/09/29 09:21:34;;;;;;;1.42;0.70;;;21.60;53.40;;;;;;5051954;28;20391;-47
2022/09/29 09:24:05;;;;;;;;;;;21.60;53.40;;;;;;5052734;28;20048;-58
2022/09/29 09:26:46;;;;;;;1.13;0.90;;;21.60;53.40;;;;;;5051491;28;19978;-58
2022/09/29 09:29:38;;;;;;;1.55;0.73;;;21.60;53.40;;;;;;5050416;28;20029;-60
2022/09/29 09:32:20;;;;;;;1.88;0.73;;;21.60;53.40;;;;;;5052930;28;20043;-58
2022/09/29 09:34:48;;;;;;;;;;;21.60;53.30;;;;;;5052852;28;20131;-59
2022/09/29 09:37:31;;;;;;;1.25;0.80;;;21.60;53.40;;;;;;5051459;28;19909;-59
2022/09/29 09:40:05;;;;;;;2.00;1.05;;;21.60;53.40;;;;;;5052237;28;20036;-56
2022/09/29 09:42:36;;;;;;;1.50;0.70;;;21.60;53.40;;;;;;5051184;28;20029;-58
2022/09/29 09:45:21;;;;;;;1.70;0.90;;;21.60;53.40;;;;;;5047511;28;20390;-59
2022/09/29 09:47:55;;;;;;;1.75;1.05;;;21.60;53.40;;;;;;5050309;28;20078;-59
2022/09/29 09:50:24;;;;;;;1.38;1.10;;;21.60;53.40;;;;;;5048297;28;20021;-58
2022/09/29 09:53:04;;;;;;;2.00;1.08;;;21.60;53.30;;;;;;5050281;28;20048;-58
2022/09/29 09:55:35;;;;;;;2.30;1.63;;;21.60;53.30;;;;;;5050169;28;20102;-59
2022/09/29 09:58:22;;;;;;;1.67;1.03;;;21.60;53.40;;;;;;5049307;28;20032;-56
2022/09/29 10:00:55;;;;;;;2.90;0.90;;;21.60;53.40;;;;;;5047152;28;20029;-58
2022/09/29 10:03:21;;;;;;;1.48;1.00;;;21.60;53.50;;;;;;5048087;28;20457;-58
2022/09/29 10:05:48;;;;;;;3.75;2.00;;;21.70;53.30;;;;;;5051829;28;20057;-59
2022/09/29 10:08:30;;;;;;;2.08;0.75;;;21.70;53.30;;;;;;5050514;28;20029;-54
2022/09/29 10:10:57;;;;;;;1.10;0.70;;;21.70;53.30;;;;;;5051750;28;20025;-59
2022/09/29 10:13:29;;;;;;;1.35;0.90;;;21.70;53.40;;;;;;5048902;28;20035;-59
2022/09/29 10:16:24;;;;;;;1.20;0.70;;;21.60;53.30;;;;;;5047749;28;20393;-57
2022/09/29 10:18:53;;;;;;;3.05;0.80;;;21.70;53.30;;;;;;5048220;28;20041;-57
2022/09/29 10:21:25;;;;;;;1.02;0.73;;;21.70;53.30;;;;;;5050265;28;20620;-56
2022/09/29 10:23:54;;;;;;;2.50;1.00;;;21.70;53.30;;;;;;5051503;28;20029;-59
2022/09/29 10:26:32;;;;;;;1.70;0.80;;;21.70;53.30;;;;;;5050872;28;20037;-59
2022/09/29 10:29:01;;;;;;;2.92;0.90;;;21.70;53.30;;;;;;5050590;28;20032;-57
2022/09/29 10:31:32;;;;;;;2.65;1.00;;;21.70;53.40;;;;;;5050001;28;20033;-52
2022/09/29 10:34:22;;;;;;;3.72;0.88;;;21.70;53.40;;;;;;5050906;28;20025;-55
2022/09/29 10:37:01;;;;;;;1.73;0.82;;;21.70;53.40;;;;;;5050895;28;20381;-58
2022/09/29 10:39:44;;;;;;;1.23;0.70;;;21.70;53.40;;;;;;5049355;28;20025;-55
2022/09/29 10:42:21;;;;;;;1.20;0.70;;;21.70;53.40;;;;;;5050419;28;20440;-56
2022/09/29 10:45:00;;;;;;;3.38;0.90;;;21.70;53.50;;;;;;5050054;28;20053;-59
2022/09/29 10:47:25;;;;;;;2.63;0.93;;;21.70;53.60;;;;;;5049030;28;20109;-59
2022/09/29 10:50:11;;;;;;;4.57;0.90;;;21.70;53.70;;;;;;5050947;28;20512;-59
2022/09/29 10:52:42;;;;;;;2.25;1.02;;;21.80;53.80;;;;;;5049922;28;20068;-58
2022/09/29 10:55:16;;;;;;;5.03;1.10;;;21.70;53.70;;;;;;5049601;28;20116;-47
2022/09/29 10:57:45;;;;;;;1.75;0.60;;;21.70;53.80;;;;;;5051339;28;20088;-59
2022/09/29 11:00:44;;;;;;;2.47;1.10;;;21.80;53.80;;;;;;5049207;28;20029;-58
2022/09/29 11:03:25;;;;;;;1.17;0.75;;;21.80;53.80;;;;;;4995312;28;20494;-52
2022/09/29 11:06:03;;;;;;;2.13;1.10;;;21.70;53.70;;;;;;5051168;28;20040;-55
2022/09/29 11:08:31;;;;;;;1.52;0.95;;;21.70;53.70;;;;;;5051294;28;20059;-58
2022/09/29 11:11:08;;;;;;;3.60;1.13;;;21.70;54.10;;;;;;5052940;28;20040;-53
2022/09/29 11:13:38;;;;;;;4.38;1.58;;;21.80;54.00;;;;;;5049718;28;20029;-59
2022/09/29 11:16:15;;;;;;;3.75;0.80;;;21.80;54.20;;;;;;5048273;28;20036;-57
2022/09/29 11:18:43;;;;;;;3.00;0.73;;;21.80;54.30;;;;;;5049794;28;20037;-59
2022/09/29 11:21:18;;;;;;;3.38;1.33;;;21.80;54.20;;;;;;5050527;28;20599;-47
2022/09/29 11:24:04;;;;;;;2.92;1.02;;;21.80;54.20;;;;;;5043211;28;20044;-59
2022/09/29 11:26:39;;;;;;;1.27;0.70;;;21.80;54.20;;;;;;5031754;28;20080;-59
2022/09/29 11:29:31;;;;;;;1.25;0.60;;;21.80;54.20;;;;;;5038536;28;20078;-47
2022/09/29 11:32:17;;;;;;;2.63;0.57;;;21.80;54.10;;;;;;5050578;28;20504;-54
2022/09/29 11:34:52;;;;;;;2.75;0.80;;;21.80;54.20;;;;;;5047193;28;20041;-58
2022/09/29 11:38:00;;;;;;;2.03;0.70;;;21.80;54.10;;;;;;5049559;28;20029;-53
2022/09/29 11:40:40;;;;;;;1.80;0.90;;;21.80;54.10;;;;;;5001198;28;20651;-58
2022/09/29 11:43:28;;;;;;;2.08;0.90;;;21.80;54.10;;;;;;5043544;28;20103;-47
2022/09/29 11:46:06;;;;;;;1.25;0.82;;;21.80;54.10;;;;;;5046167;28;20033;-58
2022/09/29 11:49:09;;;;;;;2.05;0.90;;;21.80;54.20;;;;;;5050466;28;20044;-58
2022/09/29 11:51:54;;;;;;;2.08;1.10;;;21.80;54.10;;;;;;5048755;28;20438;-59
2022/09/29 11:54:31;;;;;;;1.33;0.65;;;21.80;54.00;;;;;;5049911;28;20065;-59
2022/09/29 11:57:36;;;;;;;1.25;0.73;;;21.80;53.90;;;;;;5051468;28;20052;-57
2022/09/29 12:00:14;;;;;;;1.15;0.88;;;21.80;54.00;;;;;;5001552;28;20049;-59
2022/09/29 12:03:25;;;;;;;1.75;1.00;;;21.80;54.00;;;;;;5053845;28;20636;-58
2022/09/29 12:06:15;;;;;;;1.00;0.63;;;21.80;54.00;;;;;;4963387;28;20646;-59
2022/09/29 12:08:41;;;;;;;2.35;1.23;;;21.80;54.00;;;;;;4965445;28;20069;-58
2022/09/29 12:11:43;;;;;;;1.65;0.82;;;21.80;53.90;;;;;;4963016;28;20493;-47
2022/09/29 12:14:23;;;;;;;1.52;0.60;;;21.80;53.90;;;;;;4955559;28;20039;-47
2022/09/29 12:17:00;;;;;;;1.42;0.85;;;21.80;53.90;;;;;;4956238;28;20512;-58
2022/09/29 12:19:30;;;;;;;0.98;0.60;;;21.80;53.90;;;;;;4960890;28;20119;-58
2022/09/29 12:22:00;;;;;;;1.20;0.60;;;21.80;53.90;;;;;;4970683;28;20530;-59
2022/09/29 12:24:45;;;;;;;2.92;1.15;;;21.80;53.80;;;;;;4965230;28;20190;-58
2022/09/29 12:27:35;;;;;;;4.90;1.77;;;21.80;53.80;;;;;;4959873;28;20117;-58
2022/09/29 12:30:12;;;;;;;1.45;0.90;;;21.80;53.80;;;;;;4963004;28;20443;-58
2022/09/29 12:32:43;;;;;;;1.02;0.70;;;21.80;53.80;;;;;;4962593;28;20039;-58
2022/09/29 12:35:17;;;;;;;1.45;0.75;;;21.80;53.80;;;;;;4955617;28;20127;-47
2022/09/29 12:37:56;;;;;;;1.33;0.75;;;21.80;53.80;;;;;;5053680;28;20036;-58
2022/09/29 12:40:32;;;;;;;1.02;0.70;;;21.80;53.80;;;;;;5046630;28;20049;-58
2022/09/29 12:43:36;;;;;;;2.03;0.93;;;21.80;53.80;;;;;;5052647;28;20383;-58
2022/09/29 12:46:21;;;;;;;1.45;0.70;;;21.80;53.70;;;;;;4949380;28;20062;-59
2022/09/29 12:49:05;;;;;;;1.40;0.63;;;21.80;53.70;;;;;;5038151;28;20103;-58
2022/09/29 12:51:37;;;;;;;2.05;0.70;;;21.80;53.70;;;;;;5049952;28;20029;-59
2022/09/29 12:54:13;;;;;;;2.65;0.73;;;21.80;53.70;;;;;;5049179;28;20424;-58
2022/09/29 12:56:53;;;;;;;1.75;1.10;;;21.80;53.80;;;;;;5052643;28;20033;-55
2022/09/29 12:59:39;;;;;;;1.25;0.70;;;21.80;53.80;;;;;;5047499;28;20112;-58
2022/09/29 13:02:26;;;;;;;1.63;0.65;;;21.80;53.80;;;;;;5049524;28;20025;-59
2022/09/29 13:05:25;;;;;;;2.50;0.70;;;21.80;53.80;;;;;;5051972;28;20378;-58
2022/09/29 13:08:38;;;;;;;1.02;0.88;;;21.80;53.60;;;;;;5051881;28;20067;-59
2022/09/29 13:11:10;;;;;;;2.63;0.68;;;21.80;53.10;;;;;;5032584;28;20033;-58
2022/09/29 13:13:56;;;;;;;1.95;0.95;;;21.80;53.30;;;;;;5052357;28;20033;-58
2022/09/29 13:16:26;;;;;;;0.85;0.60;;;21.80;53.40;;;;;;5051172;28;20025;-59